Time;durP1;ratioP1;P1;durP2;ratioP2;P2;SDS_P1;SDS_P2;PMS_P1;PMS_P2;Temp;Humidity;BMP_temperature;BMP_pressure;BME280_temperature;BME280_humidity;BME280_pressure;Samples;Min_cycle;Max_cycle;Signal;HPM_P1;HPM_P2
2022/11/13 00:01:43;;;;;;;;;;;;;;;0.55;100.00;99007.55;107613;1270;60524;-70
2022/11/13 00:04:32;;;;;;;;;;;;;;;0.60;100.00;99011.81;107689;1270;72963;-70
2022/11/13 00:07:20;;;;;;;;;;;;;;;0.63;100.00;99009.39;107609;1270;69138;-70
2022/11/13 00:10:09;;;;;;;;;;;;;;;0.61;100.00;99007.52;107655;1269;69277;-70
2022/11/13 00:12:57;;;;;;;;;;;;;;;0.61;100.00;99014.04;107634;1270;60534;-70
2022/11/13 00:15:55;;;;;;;;;;;;;;;0.66;100.00;99009.88;107634;1267;60577;-70
2022/11/13 00:18:45;;;;;;;;;;;;;;;0.68;100.00;99007.63;107698;1266;72582;-70
2022/11/13 00:21:33;;;;;;;;;;;;;;;0.72;100.00;99004.51;107624;1270;69074;-70
2022/11/13 00:24:21;;;;;;;;;;;;;;;0.78;100.00;99001.03;107649;1270;69991;-70
2022/11/13 00:27:09;;;;;;;;;;;;;;;0.83;100.00;98998.92;107638;1272;60582;-70
2022/11/13 00:29:58;;;;;;;;;;;;;;;0.87;100.00;98997.87;107653;1270;60515;-70
2022/11/13 00:32:45;;;;;;;;;;;;;;;0.86;100.00;99000.45;107632;1266;72496;-70
2022/11/13 00:35:33;;;;;;;;;;;;;;;0.78;100.00;99000.52;107669;1266;69577;-69
2022/11/13 00:38:22;;;;;;;;;;;;;;;0.74;100.00;98999.87;107609;1266;69780;-70
2022/11/13 00:41:09;;;;;;;;;;;;;;;0.70;100.00;99001.61;107665;1267;60610;-70
2022/11/13 00:43:58;;;;;;;;;;;;;;;0.62;100.00;98999.61;107645;1269;60561;-70
2022/11/13 00:46:45;;;;;;;;;;;;;;;0.57;100.00;98999.65;107644;1267;71707;-70
2022/11/13 00:49:33;;;;;;;;;;;;;;;0.55;100.00;98998.97;107640;1266;69199;-70
2022/11/13 00:52:21;;;;;;;;;;;;;;;0.50;100.00;99000.04;107625;1270;69197;-70
2022/11/13 00:55:10;;;;;;;;;;;;;;;0.52;100.00;98998.66;107609;1270;60483;-70
2022/11/13 00:57:57;;;;;;;;;;;;;;;0.55;100.00;98993.15;107601;1270;60516;-70
2022/11/13 01:00:46;;;;;;;;;;;;;;;0.57;100.00;98992.63;107624;1271;72455;-69
2022/11/13 01:03:35;;;;;;;;;;;;;;;0.57;100.00;98992.79;107686;1270;69195;-70
2022/11/13 01:06:24;;;;;;;;;;;;;;;0.56;100.00;98995.73;107652;1271;69660;-70
2022/11/13 01:09:12;;;;;;;;;;;;;;;0.53;100.00;98997.63;107590;1273;60654;-70
2022/11/13 01:12:00;;;;;;;;;;;;;;;0.50;100.00;98994.55;107645;1270;60660;-70
2022/11/13 01:14:48;;;;;;;;;;;;;;;0.52;100.00;98993.19;107659;1271;72859;-70
2022/11/13 01:17:36;;;;;;;;;;;;;;;0.53;100.00;98995.75;107658;1270;69698;-70
2022/11/13 01:20:25;;;;;;;;;;;;;;;0.51;100.00;98990.95;107601;1272;69379;-70
2022/11/13 01:23:13;;;;;;;;;;;;;;;0.38;100.00;98992.05;107709;1266;60581;-70
2022/11/13 01:26:13;;;;;;;;;;;;;;;0.34;100.00;98991.93;107760;1270;60476;-70
2022/11/13 01:29:00;;;;;;;;;;;;;;;0.34;100.00;98992.96;107733;1265;72161;-70
2022/11/13 01:31:48;;;;;;;;;;;;;;;0.31;100.00;98987.30;107701;1270;69166;-70
2022/11/13 01:34:35;;;;;;;;;;;;;;;0.31;100.00;98982.15;107722;1268;68473;-70
2022/11/13 02:11:27;;;;;;;55.40;28.10;;;;;;;0.76;100.00;98960.03;105488;1296;609648;-71
2022/11/13 02:14:18;;;;;;;57.90;23.10;;;;;;;0.79;100.00;98956.05;106520;1280;610599;-70
2022/11/13 02:17:10;;;;;;;29.40;17.40;;;;;;;0.72;100.00;98958.52;106993;1283;57806;-70
2022/11/13 02:20:01;;;;;;;40.90;21.90;;;;;;;0.69;100.00;98953.92;106982;1279;69616;-69
2022/11/13 02:23:01;;;;;;;38.10;21.90;;;;;;;0.62;100.00;98955.52;106860;1269;69285;-70
2022/11/13 02:25:52;;;;;;;33.80;20.70;;;;;;;0.54;100.00;98958.85;107038;1279;69725;-69
2022/11/13 02:28:40;;;;;;;33.70;19.50;;;;;;;0.52;100.00;98960.08;107731;1270;57631;-70
2022/11/13 02:31:29;;;;;;;33.90;19.10;;;;;;;0.50;100.00;98967.79;107757;1269;57694;-69
2022/11/13 02:34:18;;;;;;;32.10;18.90;;;;;;;0.49;100.00;98970.35;107725;1269;69193;-71
2022/11/13 02:37:07;;;;;;;36.30;23.50;;;;;;;0.49;100.00;98966.09;107906;1269;69340;-70
2022/11/13 02:39:55;;;;;;;52.60;26.00;;;;;;;0.41;100.00;98967.67;107836;1269;68157;-71
2022/11/13 02:42:43;;;;;;;44.10;24.40;;;;;;;0.35;100.00;98962.59;107782;1269;58551;-71
2022/11/13 02:45:32;;;;;;;24.70;17.30;;;;;;;0.34;100.00;98962.59;107655;1271;58148;-71
2022/11/13 02:48:24;;;;;;;35.10;21.70;;;;;;;0.37;100.00;98962.58;107942;1272;69832;-70
2022/11/13 02:51:14;;;;;;;39.90;21.50;;;;;;;0.35;100.00;98963.79;107861;1264;69072;-71
2022/11/13 02:54:03;;;;;;;43.50;23.00;;;;;;;0.33;100.00;98957.63;107921;1269;69323;-71
2022/11/13 02:56:52;;;;;;;30.50;20.20;;;;;;;0.29;100.00;98962.80;107880;1269;58608;-71
2022/11/13 02:59:41;;;;;;;32.20;20.30;;;;;;;0.28;100.00;98965.39;107818;1271;58069;-71
2022/11/13 03:02:29;;;;;;;35.90;20.70;;;;;;;0.26;100.00;98965.23;107848;1267;69807;-71
2022/11/13 03:05:18;;;;;;;31.80;21.00;;;;;;;0.25;100.00;98966.60;107833;1266;69148;-70
2022/11/13 03:08:06;;;;;;;40.80;22.30;;;;;;;0.24;100.00;98968.50;107849;1269;69096;-70
2022/11/13 03:10:54;;;;;;;57.00;24.20;;;;;;;0.21;100.00;98969.70;107894;1263;58113;-71
2022/11/13 03:13:42;;;;;;;36.80;20.70;;;;;;;0.10;100.00;98973.38;107821;1269;58538;-71
2022/11/13 03:16:30;;;;;;;33.70;19.10;;;;;;;0.07;100.00;98974.09;107868;1269;69039;-71
2022/11/13 03:19:18;;;;;;;35.70;19.70;;;;;;;0.02;100.00;98967.77;107890;1268;69057;-71
2022/11/13 03:22:06;;;;;;;27.50;17.50;;;;;;;-0.05;100.00;98963.02;107836;1267;68334;-71
2022/11/13 03:24:54;;;;;;;26.40;16.10;;;;;;;-0.10;100.00;98960.30;107807;1269;58086;-71
2022/11/13 03:27:42;;;;;;;36.70;18.90;;;;;;;-0.20;100.00;98957.09;107876;1269;58096;-71
2022/11/13 03:30:30;;;;;;;40.80;21.20;;;;;;;-0.23;100.00;98961.56;107830;1266;69791;-71
2022/11/13 03:33:17;;;;;;;35.80;21.30;;;;;;;-0.31;100.00;98956.64;107890;1268;68512;-70
2022/11/13 03:36:07;;;;;;;38.90;21.80;;;;;;;-0.33;100.00;98958.35;107744;1269;68447;-71
2022/11/13 03:38:55;;;;;;;42.80;22.00;;;;;;;-0.36;100.00;98957.86;107828;1269;58073;-71
2022/11/13 03:41:42;;;;;;;50.30;23.40;;;;;;;-0.40;100.00;98965.58;107795;1269;58120;-71
2022/11/13 03:44:30;;;;;;;49.20;22.10;;;;;;;-0.44;100.00;98968.52;107866;1269;69696;-71
2022/11/13 03:47:18;;;;;;;65.90;23.30;;;;;;;-0.46;100.00;98963.54;107763;1270;69037;-71
2022/11/13 03:50:06;;;;;;;62.10;24.90;;;;;;;-0.45;100.00;98967.14;107768;1270;69204;-71
2022/11/13 03:52:54;;;;;;;28.90;17.80;;;;;;;-0.44;100.00;98965.08;107840;1269;58194;-71
2022/11/13 03:55:43;;;;;;;39.60;20.20;;;;;;;-0.44;100.00;98961.66;107825;1266;58165;-71
2022/11/13 03:58:31;;;;;;;33.30;17.90;;;;;;;-0.43;100.00;98968.33;107820;1266;69689;-70
2022/11/13 04:01:26;;;;;;;47.40;22.40;;;;;;;-0.44;100.00;98968.34;107918;1268;68286;-71
2022/11/13 04:04:14;;;;;;;18.10;12.20;;;;;;;-0.43;100.00;98970.91;107833;1270;69945;-70
2022/11/13 04:07:02;;;;;;;29.30;18.30;;;;;;;-0.42;100.00;98971.06;107894;1270;58157;-70
2022/11/13 04:09:51;;;;;;;22.90;15.80;;;;;;;-0.43;100.00;98979.98;107634;1270;58026;-71
2022/11/13 04:12:39;;;;;;;26.90;16.70;;;;;;;-0.44;100.00;98979.64;108040;1270;68831;-71
2022/11/13 04:15:28;;;;;;;36.80;16.90;;;;;;;-0.45;100.00;98978.28;107902;1269;69220;-71
2022/11/13 04:18:18;;;;;;;47.80;22.60;;;;;;;-0.48;100.00;98982.05;107783;1268;69262;-70
2022/11/13 04:21:06;;;;;;;55.20;20.70;;;;;;;-0.53;100.00;98983.44;107775;1269;58142;-69
2022/11/13 04:23:54;;;;;;;52.30;20.60;;;;;;;-0.56;100.00;98984.82;107627;1269;58174;-71
2022/11/13 04:26:42;;;;;;;80.90;21.70;;;;;;;-0.62;100.00;98982.61;107856;1267;70136;-72
2022/11/13 04:29:29;;;;;;;51.10;20.90;;;;;;;-0.71;100.00;98979.73;107807;1270;69857;-70
2022/11/13 04:32:17;;;;;;;33.50;19.10;;;;;;;-0.74;100.00;98974.25;107808;1269;69210;-71
2022/11/13 04:35:05;;;;;;;38.60;18.70;;;;;;;-0.78;100.00;98975.13;107869;1270;58161;-71
2022/11/13 04:37:54;;;;;;;30.30;17.50;;;;;;;-0.84;100.00;98973.42;107886;1268;58250;-71
2022/11/13 04:40:42;;;;;;;32.00;17.50;;;;;;;-0.85;100.00;98977.36;107899;1270;69639;-70
2022/11/13 04:43:29;;;;;;;32.10;17.20;;;;;;;-0.88;100.00;98975.84;107822;1268;69101;-70
2022/11/13 04:46:17;;;;;;;46.20;18.90;;;;;;;-0.90;100.00;98980.97;107739;1270;69992;-70
2022/11/13 04:49:05;;;;;;;48.30;20.70;;;;;;;-0.94;100.00;98978.23;107781;1268;58174;-70
2022/11/13 04:51:52;;;;;;;47.70;20.50;;;;;;;-0.94;100.00;98977.04;107851;1264;58150;-70
2022/11/13 04:54:40;;;;;;;51.60;18.30;;;;;;;-0.94;100.00;98973.62;107812;1269;69751;-70
2022/11/13 04:57:27;;;;;;;46.70;19.60;;;;;;;-0.95;100.00;98978.08;107782;1268;69723;-70
2022/11/13 05:00:15;;;;;;;29.00;16.40;;;;;;;-0.96;100.00;98979.61;107891;1268;69237;-70
2022/11/13 05:03:03;;;;;;;70.60;21.70;;;;;;;-0.99;100.00;98973.63;107775;1270;58172;-70
2022/11/13 05:05:50;;;;;;;33.60;15.60;;;;;;;-1.02;100.00;98973.98;107749;1266;58119;-70
2022/11/13 05:08:38;;;;;;;107.40;23.80;;;;;;;-1.08;100.00;98971.77;107753;1270;69726;-70
2022/11/13 05:11:26;;;;;;;46.30;18.70;;;;;;;-1.12;100.00;98974.50;107760;1269;69191;-70
2022/11/13 05:14:14;;;;;;;29.10;15.80;;;;;;;-1.13;100.00;98977.75;107748;1268;69111;-70
2022/11/13 05:17:01;;;;;;;25.30;14.80;;;;;;;-1.13;100.00;98973.14;107784;1270;58142;-70
2022/11/13 05:19:50;;;;;;;26.40;15.20;;;;;;;-1.13;100.00;98978.78;107783;1266;58102;-70
2022/11/13 05:22:37;;;;;;;21.90;15.50;;;;;;;-1.13;100.00;98976.05;107774;1270;69763;-70
2022/11/13 05:25:24;;;;;;;43.70;18.00;;;;;;;-1.12;100.00;98978.42;107743;1269;69160;-70
2022/11/13 05:28:11;;;;;;;22.00;12.50;;;;;;;-1.14;100.00;98977.42;107709;1268;69229;-70
2022/11/13 05:31:15;;;;;;;44.20;18.50;;;;;;;-1.14;100.00;98978.10;107799;1270;58085;-70
2022/11/13 05:34:04;;;;;;;31.20;14.00;;;;;;;-1.15;100.00;98977.06;107865;1269;58242;-70
2022/11/13 05:36:52;;;;;;;27.30;13.30;;;;;;;-1.16;100.00;98979.80;107796;1269;69778;-70
2022/11/13 05:39:39;;;;;;;18.90;12.60;;;;;;;-1.19;100.00;98985.29;107747;1269;69411;-71
2022/11/13 05:42:26;;;;;;;46.70;18.60;;;;;;;-1.23;100.00;98985.80;107840;1269;69251;-70
2022/11/13 05:45:14;;;;;;;24.00;13.00;;;;;;;-1.26;100.00;98984.08;107829;1268;58165;-70
2022/11/13 05:48:01;;;;;;;24.60;14.10;;;;;;;-1.24;100.00;98987.86;107786;1268;58469;-70
2022/11/13 05:50:48;;;;;;;47.20;17.30;;;;;;;-1.24;100.00;98991.45;107759;1269;70375;-70
2022/11/13 05:53:36;;;;;;;29.20;15.40;;;;;;;-1.26;100.00;98987.85;107796;1270;68396;-70
2022/11/13 05:56:27;;;;;;;39.10;16.40;;;;;;;-1.25;100.00;98982.03;107784;1269;69888;-70
2022/11/13 05:59:14;;;;;;;42.10;17.50;;;;;;;-1.24;100.00;98988.38;107824;1270;58136;-70
2022/11/13 06:02:01;;;;;;;31.80;15.50;;;;;;;-1.22;100.00;98989.73;107858;1269;58100;-70
2022/11/13 06:04:48;;;;;;;40.60;17.40;;;;;;;-1.19;100.00;98989.05;107755;1266;69656;-70
2022/11/13 06:07:37;;;;;;;53.30;18.10;;;;;;;-1.16;100.00;98989.21;107664;1267;69840;-70
2022/11/13 06:10:24;;;;;;;26.60;15.60;;;;;;;-1.11;100.00;98986.30;107745;1269;69158;-71
2022/11/13 06:13:11;;;;;;;43.20;19.00;;;;;;;-1.05;100.00;98983.21;107819;1270;58152;-71
2022/11/13 06:16:07;;;;;;;22.90;15.70;;;;;;;-1.02;100.00;98981.34;107797;1266;58129;-71
2022/11/13 06:18:57;;;;;;;26.40;17.00;;;;;;;-0.94;100.00;98983.55;107870;1270;70072;-71
2022/11/13 06:21:44;;;;;;;23.40;15.50;;;;;;;-0.88;100.00;98986.10;107849;1264;68175;-71
2022/11/13 06:35:07;;;;;;;31.80;17.20;;;;;;;-0.37;100.00;98979.78;105178;1297;610251;-70
2022/11/13 06:37:54;;;;;;;34.50;16.70;;;;;;;-0.35;100.00;98981.14;106880;1279;250779;-69
2022/11/13 06:53:12;;;;;;;22.40;15.60;;;;;;;0.08;100.00;98981.45;105202;1298;610701;-70
2022/11/13 06:56:00;;;;;;;22.70;14.90;;;;;;;0.28;100.00;98977.73;106870;1279;228467;-70
2022/11/13 07:10:55;;;;;;;14.40;11.30;;;;;;;1.39;100.00;98972.41;105422;1296;609318;-71
2022/11/13 07:13:44;;;;;;;18.60;13.00;;;;;;;1.59;99.88;98967.75;106987;1280;210423;-70
2022/11/13 07:16:31;;;;;;;34.80;16.40;;;;;;;1.62;98.50;98969.77;107028;1277;57661;-70
2022/11/13 07:19:38;;;;;;;24.90;16.80;;;;;;;1.39;96.16;98970.91;107130;1275;68821;-70
2022/11/13 07:22:26;;;;;;;42.80;23.00;;;;;;;1.33;96.72;98973.37;107128;1277;70065;-70
2022/11/13 07:25:14;;;;;;;24.50;16.50;;;;;;;1.20;97.06;98971.45;107118;1280;68754;-70
2022/11/13 07:28:02;;;;;;;44.20;19.50;;;;;;;1.11;97.76;98970.00;106961;1280;57727;-70
2022/11/13 07:30:49;;;;;;;68.00;36.40;;;;;;;0.93;99.92;98965.02;107015;1279;57733;-70
2022/11/13 07:33:36;;;;;;;57.20;32.00;;;;;;;0.98;100.00;98956.55;107028;1279;68466;-70
2022/11/13 07:36:23;;;;;;;48.60;27.50;;;;;;;1.13;100.00;98956.58;107078;1279;68459;-70
2022/11/13 07:39:11;;;;;;;31.00;19.00;;;;;;;1.39;100.00;98954.93;107114;1275;69111;-70
2022/11/13 07:41:58;;;;;;;48.70;27.30;;;;;;;1.52;99.56;98955.29;107085;1279;58174;-70
2022/11/13 07:44:45;;;;;;;22.10;15.10;;;;;;;1.66;98.80;98950.48;107127;1276;58126;-70
2022/11/13 07:47:41;;;;;;;16.70;13.30;;;;;;;1.64;96.49;98948.10;107084;1279;69771;-70
2022/11/13 07:50:31;;;;;;;142.30;67.10;;;;;;;1.76;97.86;98949.15;107091;1281;68308;-70
2022/11/13 07:53:19;;;;;;;30.20;15.90;;;;;;;2.05;98.30;98947.05;107068;1277;68470;-70
2022/11/13 07:56:07;;;;;;;32.30;15.30;;;;;;;2.21;95.97;98947.52;107088;1279;58124;-71
2022/11/13 07:58:54;;;;;;;41.20;15.80;;;;;;;2.44;94.51;98947.15;107126;1279;58127;-70
2022/11/13 08:01:41;;;;;;;20.20;13.80;;;;;;;2.74;94.72;98950.45;107117;1280;70408;-70
2022/11/13 08:04:29;;;;;;;33.60;13.40;;;;;;;2.81;94.11;98951.52;107083;1279;69819;-71
2022/11/13 08:07:16;;;;;;;13.10;10.10;;;;;;;3.18;94.51;98954.31;107113;1275;69104;-72
2022/11/13 08:10:04;;;;;;;40.80;14.20;;;;;;;3.49;93.17;98948.38;107135;1276;58554;-71
2022/11/13 08:13:00;;;;;;;15.50;12.20;;;;;;;3.38;89.70;98954.98;107071;1276;58098;-71
2022/11/13 08:15:47;;;;;;;15.60;11.90;;;;;;;3.42;89.92;98952.48;107020;1280;69737;-70
2022/11/13 08:18:35;;;;;;;17.40;12.10;;;;;;;3.58;89.40;98947.50;107032;1277;69024;-71
2022/11/13 08:21:22;;;;;;;14.90;11.10;;;;;;;3.83;89.88;98945.27;106955;1278;69224;-70
2022/11/13 08:24:09;;;;;;;16.40;12.70;;;;;;;4.03;89.72;98942.94;107045;1279;58156;-71
2022/11/13 08:26:57;;;;;;;15.20;11.50;;;;;;;4.21;89.39;98946.50;107049;1280;58214;-71
2022/11/13 08:29:44;;;;;;;14.50;11.60;;;;;;;4.60;88.60;98941.78;107041;1275;70066;-71
2022/11/13 08:32:31;;;;;;;19.70;13.80;;;;;;;4.93;88.70;98936.98;107018;1279;68986;-70
2022/11/13 08:35:19;;;;;;;25.40;14.20;;;;;;;4.88;86.75;98938.15;107028;1280;69222;-70
2022/11/13 08:38:12;;;;;;;47.10;15.40;;;;;;;4.75;85.52;98939.52;107038;1280;58101;-71
2022/11/13 08:41:01;;;;;;;16.80;12.80;;;;;;;4.86;86.37;98940.12;107045;1275;58488;-71
2022/11/13 08:43:55;;;;;;;22.50;17.40;;;;;;;5.12;85.59;98942.89;107070;1279;69700;-70
2022/11/13 08:46:42;;;;;;;19.00;14.00;;;;;;;5.35;85.19;98940.38;107049;1280;68393;-70
2022/11/13 08:49:29;;;;;;;16.40;13.40;;;;;;;5.42;82.85;98939.29;106894;1276;69289;-71
2022/11/13 08:52:16;;;;;;;19.30;13.50;;;;;;;5.76;82.66;98931.42;107037;1280;58125;-70
2022/11/13 08:55:04;;;;;;;16.00;12.50;;;;;;;6.11;80.68;98926.08;107407;1276;58164;-71
2022/11/13 08:57:52;;;;;;;13.90;11.10;;;;;;;6.72;79.11;98930.02;107397;1276;70374;-71
2022/11/13 09:00:39;;;;;;;12.70;10.70;;;;;;;6.93;74.54;98931.90;107330;1276;69393;-71
2022/11/13 09:03:27;;;;;;;16.50;14.20;;;;;;;7.62;74.04;98925.50;107308;1277;69265;-71
2022/11/13 09:06:14;;;;;;;16.30;12.70;;;;;;;8.56;71.85;98918.77;107509;1273;58136;-71
2022/11/13 09:09:05;;;;;;;11.80;10.10;;;;;;;8.99;67.74;98916.95;107875;1260;58121;-71
2022/11/13 09:11:52;;;;;;;16.10;12.60;;;;;;;9.65;65.49;98915.63;107774;1269;68748;-70
2022/11/13 09:14:39;;;;;;;12.30;10.20;;;;;;;10.94;64.73;98916.13;107812;1269;69182;-70
2022/11/13 09:17:26;;;;;;;11.80;10.60;;;;;;;12.25;65.59;98906.91;107805;1269;69771;-71
2022/11/13 09:20:14;;;;;;;14.10;12.60;;;;;;;12.83;61.69;98903.23;107817;1265;58205;-71
2022/11/13 09:23:06;;;;;;;14.60;12.90;;;;;;;13.28;58.36;98899.73;107752;1269;58137;-71
2022/11/13 09:25:54;;;;;;;16.00;13.00;;;;;;;13.64;56.20;98896.13;107833;1269;69614;-70
2022/11/13 09:28:42;;;;;;;13.80;12.20;;;;;;;13.60;54.59;98889.55;107779;1269;69662;-70
2022/11/13 09:31:29;;;;;;;15.40;13.90;;;;;;;13.60;54.90;98890.27;107777;1268;69240;-70
2022/11/13 09:34:16;;;;;;;14.50;13.00;;;;;;;13.37;53.47;98887.95;107786;1264;58234;-70
2022/11/13 09:37:03;;;;;;;16.00;13.20;;;;;;;13.57;54.13;98881.16;107843;1268;58160;-69
2022/11/13 09:39:50;;;;;;;12.30;11.00;;;;;;;12.97;53.75;98879.30;107780;1265;69755;-70
2022/11/13 09:42:40;;;;;;;9.90;8.90;;;;;;;13.19;52.35;98870.65;107857;1264;69242;-70
2022/11/13 09:45:30;;;;;;;9.10;8.20;;;;;;;14.40;51.62;98868.89;107755;1266;68473;-70
2022/11/13 09:48:17;;;;;;;;;;;;;;;15.13;48.02;98862.73;107759;1269;58061;-70
2022/11/13 09:51:13;;;;;;;12.80;11.50;;;;;;;15.51;48.54;98858.92;107697;1269;58133;-68
2022/11/13 09:54:04;;;;;;;13.30;12.00;;;;;;;16.30;47.10;98854.71;107655;1269;69609;-71
2022/11/13 09:57:05;;;;;;;15.80;14.20;;;;;;;15.30;47.81;98851.07;107835;1270;68262;-71
2022/11/13 10:00:01;;;;;;;13.30;12.00;;;;;;;15.58;48.65;98849.66;107825;1266;68459;-72
2022/11/13 10:03:13;;;;;;;14.00;12.60;;;;;;;14.85;48.98;98844.12;107807;1269;58185;-70
2022/11/13 10:06:26;;;;;;;15.40;13.00;;;;;;;16.37;46.17;98841.20;107894;1268;58527;-71
2022/11/13 10:09:48;;;;;;;15.60;14.10;;;;;;;16.35;45.79;98836.77;107711;1270;70385;-71
2022/11/13 10:12:36;;;;;;;15.70;14.00;;;;;;;16.19;46.61;98830.73;107831;1266;69798;-70
2022/11/13 10:15:24;;;;;;;16.30;14.30;;;;;;;15.88;47.81;98827.19;107831;1265;69054;-70
2022/11/13 10:18:15;;;;;;;17.20;15.20;;;;;;;16.33;46.34;98825.80;107822;1268;58083;-70
2022/11/13 10:21:22;;;;;;;18.10;16.20;;;;;;;16.14;46.57;98825.59;107697;1270;58102;-70
2022/11/13 10:24:21;;;;;;;17.40;15.60;;;;;;;15.29;48.09;98819.89;107721;1269;70562;-71
2022/11/13 10:27:11;;;;;;;17.80;15.90;;;;;;;15.33;48.45;98816.83;107733;1269;68827;-70
2022/11/13 10:29:58;;;;;;;18.60;16.60;;;;;;;15.21;48.93;98813.58;107843;1269;68525;-71
2022/11/13 10:32:47;;;;;;;20.20;17.60;;;;;;;15.27;49.32;98809.88;107825;1265;58104;-70
2022/11/13 10:35:37;;;;;;;16.00;14.30;;;;;;;14.92;49.00;98811.59;107866;1269;58132;-70
2022/11/13 10:38:38;;;;;;;21.30;18.30;;;;;;;13.25;53.56;98813.60;107860;1265;69604;-70
2022/11/13 10:41:25;;;;;;;23.50;18.30;;;;;;;12.98;54.88;98814.32;107872;1266;68276;-70
2022/11/13 10:44:28;;;;;;;18.70;15.60;;;;;;;13.17;54.45;98810.95;107677;1269;69312;-70
2022/11/13 10:47:19;;;;;;;21.60;18.50;;;;;;;13.81;53.21;98811.88;107679;1264;58142;-71
2022/11/13 10:50:28;;;;;;;23.10;19.30;;;;;;;13.69;53.12;98806.67;107696;1270;58099;-70
2022/11/13 10:53:18;;;;;;;24.80;19.80;;;;;;;13.45;54.19;98807.80;107666;1266;69274;-70
2022/11/13 10:56:25;;;;;;;22.50;17.90;;;;;;;13.76;52.79;98807.95;107659;1268;69014;-71
2022/11/13 10:59:18;;;;;;;20.30;17.30;;;;;;;12.66;55.97;98801.93;107636;1269;69257;-70
2022/11/13 11:02:11;;;;;;;21.90;18.00;;;;;;;12.85;55.96;98796.42;107620;1265;58150;-70
2022/11/13 11:05:17;;;;;;;22.20;18.60;;;;;;;12.81;56.29;98792.83;107838;1266;58096;-71
2022/11/13 11:08:09;;;;;;;24.40;19.20;;;;;;;12.61;56.71;98790.16;107859;1266;69826;-70
2022/11/13 11:14:28;;;;;;;31.40;23.90;;;;;;;12.29;58.08;98784.90;107705;1269;69093;-70
2022/11/13 11:17:20;;;;;;;28.80;21.90;;;;;;;12.50;57.34;98781.69;107725;1269;58176;-70
2022/11/13 11:20:19;;;;;;;33.70;28.70;;;;;;;11.90;59.36;98783.77;107669;1269;58159;-70
2022/11/13 11:23:38;;;;;;;22.30;19.40;;;;;;;12.59;57.77;98775.23;107687;1266;69282;-71
2022/11/13 11:26:38;;;;;;;21.20;16.90;;;;;;;12.92;57.44;98764.52;107633;1269;69397;-71
2022/11/13 11:29:38;;;;;;;20.70;15.90;;;;;;;13.87;55.56;98770.30;107834;1269;69146;-71
2022/11/13 11:33:16;;;;;;;18.70;16.80;;;;;;;14.44;53.72;98764.77;107659;1268;58082;-70
2022/11/13 11:36:26;;;;;;;16.00;14.30;;;;;;;14.92;52.13;98756.79;107631;1270;58106;-71
2022/11/13 11:39:22;;;;;;;16.40;14.70;;;;;;;14.86;51.52;98754.60;107712;1269;69282;-70
2022/11/13 11:42:24;;;;;;;16.90;14.50;;;;;;;14.95;51.56;98752.73;107658;1265;68538;-70
2022/11/13 11:45:33;;;;;;;18.70;15.80;;;;;;;15.31;50.35;98747.55;107815;1269;67815;-69
2022/11/13 11:48:27;;;;;;;17.70;14.30;;;;;;;15.45;49.53;98748.14;107661;1268;58196;-70
2022/11/13 11:51:14;;;;;;;17.70;15.80;;;;;;;15.30;49.90;98746.64;107687;1266;58525;-70
2022/11/13 11:54:23;;;;;;;16.70;14.10;;;;;;;15.15;50.00;98743.26;107701;1269;69758;-71
2022/11/13 11:57:34;;;;;;;16.20;14.20;;;;;;;14.88;50.37;98742.33;107674;1265;69051;-70
2022/11/13 12:00:21;;;;;;;15.30;13.60;;;;;;;15.19;50.24;98738.02;107817;1262;68339;-71
2022/11/13 12:03:31;;;;;;;13.90;11.50;;;;;;;15.67;49.52;98734.83;107857;1266;58966;-71
2022/11/13 12:06:25;;;;;;;14.70;12.20;;;;;;;16.05;48.85;98734.34;107825;1266;58884;-71
2022/11/13 12:09:27;;;;;;;16.90;15.10;;;;;;;16.89;46.96;98725.86;107759;1269;71192;-71
2022/11/13 12:12:23;;;;;;;17.30;14.90;;;;;;;17.09;46.56;98724.13;107806;1262;69707;-71
2022/11/13 12:15:27;;;;;;;18.50;15.00;;;;;;;17.15;45.55;98721.92;107771;1266;69774;-71
2022/11/13 12:18:59;;;;;;;21.90;19.40;;;;;;;17.00;45.82;98719.71;107799;1269;58945;-71
2022/11/13 12:22:09;;;;;;;17.90;15.60;;;;;;;17.13;45.08;98716.92;107807;1266;58880;-72
2022/11/13 12:24:57;;;;;;;18.40;15.80;;;;;;;17.41;44.76;98716.60;107754;1266;69791;-71
2022/11/13 12:27:56;;;;;;;20.70;18.20;;;;;;;17.49;44.51;98714.91;107815;1269;69848;-71
2022/11/13 12:31:20;;;;;;;21.00;16.50;;;;;;;16.99;44.65;98706.02;107791;1269;69247;-70
2022/11/13 12:34:29;;;;;;;20.30;16.00;;;;;;;16.44;46.11;98710.84;107851;1269;58978;-70
2022/11/13 12:37:38;;;;;;;22.90;18.70;;;;;;;16.64;45.97;98707.70;107837;1269;59045;-71
2022/11/13 12:40:44;;;;;;;20.80;18.50;;;;;;;16.68;45.37;98703.35;107725;1266;69782;-69
2022/11/13 12:43:33;;;;;;;19.60;17.50;;;;;;;16.69;45.67;98699.04;107817;1264;69026;-70
2022/11/13 12:46:31;;;;;;;20.60;18.30;;;;;;;16.69;45.47;98694.83;107719;1268;69446;-70
2022/11/13 12:49:21;;;;;;;22.40;19.30;;;;;;;16.08;46.09;98698.96;107690;1270;59241;-70
2022/11/13 12:52:14;;;;;;;19.50;17.40;;;;;;;15.55;47.42;98696.52;107638;1266;58895;-70
2022/11/13 12:55:07;;;;;;;22.20;17.60;;;;;;;15.55;47.89;98695.77;107659;1269;70584;-72
2022/11/13 12:58:16;;;;;;;18.90;15.20;;;;;;;15.54;47.88;98689.70;107666;1266;69218;-71
2022/11/13 13:01:06;;;;;;;16.20;13.90;;;;;;;15.83;47.61;98691.98;107898;1269;68501;-70
2022/11/13 13:04:28;;;;;;;18.70;14.90;;;;;;;16.12;46.92;98690.23;107692;1269;58892;-70
2022/11/13 13:07:22;;;;;;;19.40;15.90;;;;;;;15.62;47.80;98690.52;107813;1269;58974;-70
2022/11/13 13:10:27;;;;;;;19.40;17.20;;;;;;;15.70;47.95;98686.23;107640;1264;70570;-70
2022/11/13 13:13:24;;;;;;;17.20;15.40;;;;;;;15.89;47.95;98684.73;107614;1269;69166;-71
2022/11/13 13:16:22;;;;;;;19.20;16.30;;;;;;;16.04;47.37;98677.95;107786;1267;68352;-71
2022/11/13 13:19:29;;;;;;;17.60;14.40;;;;;;;16.08;47.07;98678.67;107780;1270;58991;-71
2022/11/13 13:22:30;;;;;;;18.80;15.60;;;;;;;16.05;47.28;98672.95;107807;1264;58922;-71
2022/11/13 13:25:29;;;;;;;16.40;13.50;;;;;;;15.97;47.28;98670.20;107801;1267;68819;-71
2022/11/13 13:28:23;;;;;;;18.90;16.10;;;;;;;16.43;46.43;98665.54;107763;1264;69164;-71
2022/11/13 13:31:17;;;;;;;17.60;14.20;;;;;;;15.83;47.23;98673.39;107800;1269;68272;-71
2022/11/13 13:34:38;;;;;;;19.60;16.30;;;;;;;15.63;47.56;98673.21;107752;1265;58969;-70
2022/11/13 13:37:46;;;;;;;18.80;16.10;;;;;;;14.96;49.35;98673.34;107794;1269;58893;-71
2022/11/13 13:40:40;;;;;;;22.30;18.00;;;;;;;14.87;49.54;98668.35;107705;1264;71123;-71
2022/11/13 13:43:47;;;;;;;18.40;15.00;;;;;;;14.38;50.26;98668.73;107826;1269;69002;-71
2022/11/13 13:46:35;;;;;;;18.10;16.00;;;;;;;13.88;51.97;98672.61;107678;1269;69296;-69
2022/11/13 13:49:25;;;;;;;16.30;13.10;;;;;;;14.01;51.56;98667.06;107859;1270;58926;-70
2022/11/13 13:52:14;;;;;;;19.70;14.80;;;;;;;14.08;51.54;98664.31;107901;1264;58915;-71
2022/11/13 13:55:05;;;;;;;18.10;15.20;;;;;;;13.98;51.67;98660.58;107698;1265;70293;-70
2022/11/13 13:57:53;;;;;;;20.30;16.60;;;;;;;13.82;52.10;98659.17;107592;1266;69974;-70
2022/11/13 14:00:41;;;;;;;24.50;18.20;;;;;;;13.75;52.36;98660.02;107644;1266;69886;-70
2022/11/13 14:03:48;;;;;;;24.10;18.50;;;;;;;13.24;53.33;98655.95;107654;1266;58970;-70
2022/11/13 14:06:47;;;;;;;23.60;16.00;;;;;;;12.42;55.06;98658.39;107641;1268;58923;-70
2022/11/13 14:09:34;;;;;;;32.00;19.40;;;;;;;11.69;57.29;98662.02;107750;1264;70107;-69
2022/11/13 14:12:22;;;;;;;32.80;18.80;;;;;;;11.00;59.17;98661.98;107793;1269;69035;-71
2022/11/13 14:15:23;;;;;;;32.00;21.00;;;;;;;10.14;61.42;98657.84;107801;1268;69077;-71
2022/11/13 14:18:15;;;;;;;22.40;15.10;;;;;;;9.18;64.85;98663.92;107837;1265;58915;-71
2022/11/13 14:21:15;;;;;;;40.40;19.60;;;;;;;8.48;67.52;98656.04;107839;1269;58887;-71
2022/11/13 14:24:04;;;;;;;34.00;20.00;;;;;;;7.78;69.89;98657.48;107692;1266;70951;-71
2022/11/13 14:26:54;;;;;;;55.20;21.50;;;;;;;7.13;74.43;98658.34;107785;1266;69215;-70